createdAt,value
2022-12-11T00:01:23.605Z,66.13
2022-12-11T00:03:50.130Z,59.50
2022-12-11T00:06:21.365Z,52.73
2022-12-11T00:08:51.543Z,53.17
2022-12-11T00:11:18.126Z,62.67
2022-12-11T00:13:46.170Z,56.30
2022-12-11T00:16:12.936Z,63.13
2022-12-11T00:18:39.340Z,56.87
2022-12-11T00:21:09.995Z,63.10
2022-12-11T00:23:37.095Z,55.67
2022-12-11T00:26:14.628Z,60.70
2022-12-11T00:28:42.647Z,60.73
2022-12-11T00:31:15.057Z,60.47
2022-12-11T00:33:43.933Z,58.53
2022-12-11T00:36:23.545Z,57.23
2022-12-11T00:38:51.210Z,52.17
2022-12-11T00:41:17.928Z,60.53
2022-12-11T00:43:44.419Z,52.33
2022-12-11T00:46:11.437Z,55.83
2022-12-11T00:48:38.275Z,54.57
2022-12-11T00:51:05.111Z,62.57
2022-12-11T00:53:31.614Z,55.10
2022-12-11T00:55:57.890Z,52.17
2022-12-11T00:58:24.070Z,58.23
2022-12-11T01:00:52.387Z,53.20
2022-12-11T01:03:19.008Z,55.40
2022-12-11T01:05:54.713Z,44.33
2022-12-11T01:08:21.073Z,45.33
2022-12-11T01:10:47.470Z,42.47
2022-12-11T01:13:14.482Z,53.07
2022-12-11T01:15:44.749Z,50.60
2022-12-11T01:18:14.203Z,60.47
2022-12-11T01:20:42.607Z,54.83
2022-12-11T01:23:13.219Z,45.73
2022-12-11T01:25:40.945Z,41.50
2022-12-11T01:28:08.351Z,49.67
2022-12-11T01:30:35.862Z,53.00
2022-12-11T01:33:02.633Z,53.53
2022-12-11T01:35:28.990Z,54.90
2022-12-11T01:37:55.788Z,53.60
2022-12-11T01:40:22.586Z,53.93
2022-12-11T01:42:49.698Z,53.47
2022-12-11T01:45:29.718Z,48.20
2022-12-11T01:48:04.740Z,40.80
2022-12-11T01:50:35.434Z,37.07
2022-12-11T01:53:07.351Z,49.77
2022-12-11T01:55:36.718Z,47.40
2022-12-11T01:58:03.589Z,49.00
2022-12-11T02:00:29.925Z,51.30
2022-12-11T02:02:56.313Z,47.50
2022-12-11T02:05:22.591Z,52.50
2022-12-11T02:07:56.099Z,45.83
2022-12-11T02:10:33.793Z,49.23
2022-12-11T02:13:12.751Z,40.77
2022-12-11T02:16:02.822Z,54.80
2022-12-11T02:18:46.828Z,50.23
2022-12-11T02:21:24.691Z,45.03
2022-12-11T02:24:56.484Z,42.33
2022-12-11T02:27:55.670Z,41.60
2022-12-11T02:30:24.054Z,42.90
2022-12-11T02:32:56.851Z,45.27
2022-12-11T02:35:32.697Z,46.07
2022-12-11T02:38:09.912Z,49.30
2022-12-11T02:40:40.093Z,46.87
2022-12-11T02:43:11.010Z,55.20
2022-12-11T02:45:41.080Z,52.50
2022-12-11T02:48:11.054Z,52.53
2022-12-11T02:50:45.918Z,51.80
2022-12-11T02:53:23.167Z,52.40
2022-12-11T02:56:00.769Z,53.77
2022-12-11T02:58:32.967Z,49.73
2022-12-11T03:00:59.741Z,45.93
2022-12-11T03:03:29.967Z,55.00
2022-12-11T03:05:56.483Z,51.90
2022-12-11T03:08:22.937Z,54.97
2022-12-11T03:10:49.312Z,49.67
2022-12-11T03:13:21.140Z,56.67
2022-12-11T03:16:12.644Z,51.93
2022-12-11T03:19:03.480Z,49.27
2022-12-11T03:21:38.134Z,59.93
2022-12-11T03:24:40.668Z,52.87
2022-12-11T03:27:46.996Z,46.83
2022-12-11T03:30:22.358Z,41.27
2022-12-11T03:32:53.360Z,41.53
2022-12-11T03:35:41.186Z,42.37
2022-12-11T03:38:17.918Z,52.33
2022-12-11T03:40:49.652Z,55.87
2022-12-11T03:43:17.301Z,48.93
2022-12-11T03:45:47.120Z,51.70
2022-12-11T03:48:17.390Z,49.73
2022-12-11T03:50:46.108Z,54.63
2022-12-11T03:53:12.549Z,54.33
2022-12-11T03:55:40.802Z,51.13
2022-12-11T03:58:07.302Z,49.87
2022-12-11T04:00:33.808Z,54.50
2022-12-11T04:03:17.054Z,58.33
2022-12-11T04:05:52.316Z,59.43
2022-12-11T04:08:20.781Z,50.97
2022-12-11T04:10:48.160Z,54.37
2022-12-11T04:13:14.355Z,55.67
2022-12-11T04:15:40.824Z,50.80
2022-12-11T04:18:28.215Z,56.70
2022-12-11T04:21:14.180Z,45.00
2022-12-11T04:23:59.225Z,53.10
2022-12-11T04:26:25.966Z,51.50
2022-12-11T04:28:52.209Z,71.73
2022-12-11T04:31:21.747Z,55.20
2022-12-11T04:33:48.664Z,55.23
2022-12-11T04:36:15.050Z,57.17
2022-12-11T04:38:41.317Z,65.80
2022-12-11T04:41:13.626Z,72.30
2022-12-11T04:43:41.287Z,67.13
2022-12-11T04:46:11.567Z,54.40
2022-12-11T04:48:39.251Z,55.47
2022-12-11T04:51:07.056Z,58.87
2022-12-11T04:53:34.161Z,59.70
2022-12-11T04:56:01.092Z,57.53
2022-12-11T04:58:27.807Z,58.47
2022-12-11T05:00:54.032Z,55.50
2022-12-11T05:03:20.488Z,55.43
2022-12-11T05:05:53.480Z,61.60
2022-12-11T05:08:21.214Z,55.53
2022-12-11T05:10:59.254Z,51.50
2022-12-11T05:13:27.763Z,42.80
2022-12-11T05:15:54.448Z,48.73
2022-12-11T05:18:21.067Z,51.10
2022-12-11T05:21:16.888Z,50.57
2022-12-11T05:23:43.603Z,56.70
2022-12-11T05:26:17.558Z,50.57
2022-12-11T05:28:44.977Z,52.93
2022-12-11T05:31:21.570Z,55.07
2022-12-11T05:33:49.614Z,48.20
2022-12-11T05:36:29.193Z,55.90
2022-12-11T05:38:58.056Z,55.87
2022-12-11T05:41:27.832Z,49.20
2022-12-11T05:43:54.552Z,42.27
2022-12-11T05:46:27.312Z,48.43
2022-12-11T05:48:58.307Z,35.97
2022-12-11T05:51:26.378Z,57.97
2022-12-11T05:53:54.952Z,49.43
2022-12-11T05:56:31.608Z,48.50
2022-12-11T05:58:59.764Z,44.57
2022-12-11T06:01:31.991Z,48.73
2022-12-11T06:03:59.538Z,71.80
2022-12-11T06:06:27.366Z,53.37
2022-12-11T06:08:56.771Z,43.33
2022-12-11T06:11:24.776Z,54.50
2022-12-11T06:13:52.428Z,55.47
2022-12-11T06:16:20.080Z,55.53
2022-12-11T06:18:47.553Z,55.30
2022-12-11T06:21:20.628Z,57.00
2022-12-11T06:23:51.269Z,53.77
2022-12-11T06:26:19.457Z,52.83
2022-12-11T06:28:47.385Z,59.53
2022-12-11T06:31:14.475Z,57.53
2022-12-11T06:33:42.170Z,51.10
2022-12-11T06:36:13.981Z,45.90
2022-12-11T06:38:41.161Z,43.37
2022-12-11T06:41:08.651Z,48.90
2022-12-11T06:43:38.036Z,47.53
2022-12-11T06:46:20.720Z,42.90
2022-12-11T06:48:48.410Z,39.63
2022-12-11T06:51:21.616Z,51.57
2022-12-11T06:53:56.132Z,49.33
2022-12-11T06:56:23.861Z,44.20
2022-12-11T06:58:51.493Z,42.90
2022-12-11T07:01:25.476Z,46.53
2022-12-11T07:03:58.032Z,34.13
2022-12-11T07:06:26.370Z,38.43
2022-12-11T07:08:53.728Z,40.57
2022-12-11T07:11:21.047Z,33.07
2022-12-11T07:13:47.985Z,30.73
2022-12-11T07:16:16.282Z,35.33
2022-12-11T07:18:49.047Z,21.03
2022-12-11T07:21:16.778Z,29.43
2022-12-11T07:23:43.098Z,32.20
2022-12-11T07:26:14.726Z,27.40
2022-12-11T07:28:42.374Z,26.00
2022-12-11T07:31:19.242Z,28.70
2022-12-11T07:33:46.475Z,25.70
2022-12-11T07:36:14.454Z,22.27
2022-12-11T07:38:41.080Z,25.03
2022-12-11T07:41:11.526Z,23.53
2022-12-11T07:43:38.155Z,23.90
2022-12-11T07:46:08.618Z,22.07
2022-12-11T07:48:38.440Z,24.17
2022-12-11T07:51:25.752Z,16.27
2022-12-11T07:54:00.921Z,28.53
2022-12-11T07:56:28.992Z,28.93
2022-12-11T07:58:55.722Z,27.03
2022-12-11T08:01:26.077Z,28.10
2022-12-11T08:03:54.456Z,27.00
2022-12-11T08:06:27.341Z,22.30
2022-12-11T08:08:55.948Z,21.00
2022-12-11T08:11:22.280Z,23.73
2022-12-11T08:13:48.898Z,29.47
2022-12-11T08:16:17.174Z,26.33
2022-12-11T08:18:46.094Z,23.77
2022-12-11T08:21:20.998Z,22.50
2022-12-11T08:23:48.725Z,21.73
2022-12-11T08:26:21.935Z,27.53
2022-12-11T08:28:48.922Z,21.87
2022-12-11T08:31:18.014Z,23.20
2022-12-11T08:33:45.174Z,23.27
2022-12-11T08:36:15.252Z,29.53
2022-12-11T08:38:41.919Z,23.90
2022-12-11T08:41:15.909Z,20.70
2022-12-11T08:43:43.199Z,24.63
2022-12-11T08:46:12.122Z,24.57
2022-12-11T08:48:40.990Z,22.43
2022-12-11T08:51:14.151Z,20.60
2022-12-11T08:53:40.876Z,23.30
2022-12-11T08:56:11.589Z,22.20
2022-12-11T08:58:37.920Z,26.63
2022-12-11T09:01:14.321Z,22.70
2022-12-11T09:03:41.880Z,21.13
2022-12-11T09:06:13.140Z,20.37
2022-12-11T09:08:40.963Z,26.97
2022-12-11T09:11:14.923Z,20.47
2022-12-11T09:13:42.440Z,19.33
2022-12-11T09:16:12.934Z,26.37
2022-12-11T09:18:40.560Z,20.57
2022-12-11T09:21:16.491Z,21.13
2022-12-11T09:23:43.371Z,23.43
2022-12-11T09:26:14.090Z,18.93
2022-12-11T09:28:46.653Z,16.20
2022-12-11T09:31:23.795Z,22.13
2022-12-11T09:33:53.365Z,20.07
2022-12-11T09:36:19.747Z,22.57
2022-12-11T09:38:47.398Z,23.70
2022-12-11T09:41:22.995Z,24.77
2022-12-11T09:44:15.856Z,22.07
2022-12-11T09:46:43.603Z,23.00
2022-12-11T09:49:26.012Z,28.40
2022-12-11T09:52:16.286Z,24.27
2022-12-11T09:55:18.774Z,25.00
2022-12-11T09:58:36.380Z,20.33
2022-12-11T10:01:33.842Z,24.50
2022-12-11T10:04:29.970Z,26.60
2022-12-11T10:07:15.828Z,27.03
2022-12-11T10:10:33.178Z,22.80
2022-12-11T10:13:20.881Z,22.43
2022-12-11T10:16:12.061Z,18.53
2022-12-11T10:18:39.312Z,18.40
2022-12-11T10:21:06.264Z,17.77
2022-12-11T10:23:54.138Z,15.67
2022-12-11T10:26:22.774Z,18.37
2022-12-11T10:28:49.682Z,15.83
2022-12-11T10:31:41.569Z,20.40
2022-12-11T10:34:20.110Z,17.93
2022-12-11T10:36:46.739Z,22.50
2022-12-11T10:39:17.859Z,20.27
2022-12-11T10:41:47.261Z,21.77
2022-12-11T10:44:24.591Z,23.27
2022-12-11T10:47:17.188Z,18.00
2022-12-11T10:49:55.431Z,23.93
2022-12-11T10:52:44.214Z,21.33
2022-12-11T10:55:21.940Z,24.50
2022-12-11T10:58:03.289Z,20.83
2022-12-11T11:00:38.925Z,24.13
2022-12-11T11:03:21.614Z,23.50
2022-12-11T11:05:50.318Z,24.13
2022-12-11T11:08:22.034Z,21.83
2022-12-11T11:10:57.855Z,26.13
2022-12-11T11:13:28.432Z,24.67
2022-12-11T11:16:10.747Z,28.63
2022-12-11T11:18:40.855Z,19.20
2022-12-11T11:21:16.627Z,19.90
2022-12-11T11:23:47.209Z,25.70
2022-12-11T11:26:18.607Z,25.53
2022-12-11T11:28:55.858Z,24.60
2022-12-11T11:31:34.724Z,26.67
2022-12-11T11:34:10.035Z,24.57
2022-12-11T11:36:37.664Z,24.37
2022-12-11T11:39:31.474Z,25.53
2022-12-11T11:42:17.863Z,25.07
2022-12-11T11:45:04.942Z,22.70
2022-12-11T11:47:44.020Z,31.73
2022-12-11T11:50:24.134Z,22.77
2022-12-11T11:53:13.034Z,32.07
2022-12-11T11:56:30.909Z,35.53
2022-12-11T11:59:46.848Z,26.87
2022-12-11T12:02:20.065Z,30.07
2022-12-11T12:04:50.472Z,27.07
2022-12-11T12:07:24.067Z,23.53
2022-12-11T12:10:23.737Z,28.00
2022-12-11T12:13:10.853Z,22.73
2022-12-11T12:16:01.817Z,26.70
2022-12-11T12:19:01.100Z,25.93
2022-12-11T12:21:35.744Z,21.70
2022-12-11T12:24:45.899Z,31.73
2022-12-11T12:30:22.837Z,26.77
2022-12-11T12:33:16.885Z,25.37
2022-12-11T12:36:11.618Z,20.37
2022-12-11T12:38:55.353Z,21.33
2022-12-11T12:41:55.981Z,18.83
2022-12-11T12:44:25.648Z,18.97
2022-12-11T12:47:19.227Z,19.80
2022-12-11T12:49:50.841Z,18.37
2022-12-11T12:52:38.980Z,18.17
2022-12-11T12:55:23.504Z,22.10
2022-12-11T12:57:55.476Z,21.77
2022-12-11T13:00:35.782Z,20.50
2022-12-11T13:03:16.639Z,16.77
2022-12-11T13:06:08.851Z,19.50
2022-12-11T13:08:51.050Z,19.80
2022-12-11T13:11:31.765Z,19.37
2022-12-11T13:14:22.419Z,21.30
2022-12-11T13:17:03.544Z,16.37
2022-12-11T13:19:37.644Z,17.70
2022-12-11T13:22:13.551Z,21.63
2022-12-11T13:24:52.916Z,16.37
2022-12-11T13:27:43.864Z,21.87
2022-12-11T13:30:22.340Z,21.00
2022-12-11T13:33:04.965Z,20.43
2022-12-11T13:35:34.646Z,18.10
2022-12-11T13:38:16.578Z,26.17
2022-12-11T13:40:45.973Z,19.70
2022-12-11T13:43:25.174Z,21.00
2022-12-11T13:45:56.652Z,22.97
2022-12-11T13:48:32.957Z,21.77
2022-12-11T13:51:00.881Z,18.40
2022-12-11T13:53:30.998Z,19.10
2022-12-11T13:56:16.706Z,16.43
2022-12-11T13:58:43.232Z,22.20
2022-12-11T14:01:22.419Z,19.77
2022-12-11T14:03:57.788Z,15.63
2022-12-11T14:06:27.341Z,16.70
2022-12-11T14:08:59.359Z,28.73
2022-12-11T14:11:34.504Z,25.83
2022-12-11T14:14:06.675Z,27.37
2022-12-11T14:16:33.524Z,22.63
2022-12-11T14:19:07.645Z,22.50
2022-12-11T14:21:34.945Z,22.77
2022-12-11T14:24:04.359Z,23.70
2022-12-11T14:26:34.538Z,21.47
2022-12-11T14:29:02.153Z,22.33
2022-12-11T14:31:37.637Z,22.33
2022-12-11T14:34:23.727Z,20.70
2022-12-11T14:36:50.627Z,24.30
2022-12-11T14:39:27.795Z,21.97
2022-12-11T14:42:04.301Z,22.37
2022-12-11T14:44:49.551Z,28.27
2022-12-11T14:47:23.941Z,23.23
2022-12-11T14:50:21.583Z,25.63
2022-12-11T14:52:55.123Z,27.40
2022-12-11T14:55:29.967Z,23.83
2022-12-11T14:58:02.593Z,37.00
2022-12-11T15:00:35.420Z,30.70
2022-12-11T15:03:11.941Z,34.60
2022-12-11T15:05:56.740Z,29.63
2022-12-11T15:08:34.225Z,33.13
2022-12-11T15:11:09.536Z,32.23
2022-12-11T15:13:58.789Z,26.80
2022-12-11T15:16:31.112Z,28.27
2022-12-11T15:18:58.147Z,31.23
2022-12-11T15:21:35.514Z,175.57
2022-12-11T15:24:05.061Z,64.43
2022-12-11T15:26:48.084Z,42.57
2022-12-11T15:29:38.087Z,30.50
2022-12-11T15:32:13.443Z,33.60
2022-12-11T15:34:54.015Z,29.20
2022-12-11T15:37:35.884Z,25.83
2022-12-11T15:40:04.939Z,29.07
2022-12-11T15:42:41.233Z,27.83
2022-12-11T15:45:16.035Z,27.63
2022-12-11T15:47:44.736Z,29.73
2022-12-11T15:50:21.785Z,36.57
2022-12-11T15:52:49.844Z,36.63
2022-12-11T15:55:18.566Z,34.80
2022-12-11T15:58:00.475Z,30.03
2022-12-11T16:00:27.457Z,30.53
2022-12-11T16:02:56.138Z,30.77
2022-12-11T16:05:22.912Z,31.63
2022-12-11T16:07:58.612Z,30.40
2022-12-11T16:10:26.013Z,28.43
2022-12-11T16:12:52.581Z,25.93
2022-12-11T16:15:23.539Z,26.03
2022-12-11T16:18:02.453Z,28.63
2022-12-11T16:20:30.218Z,20.17
2022-12-11T16:22:58.179Z,26.20
2022-12-11T16:25:25.933Z,26.23
2022-12-11T16:27:59.317Z,25.67
2022-12-11T16:30:28.353Z,23.93
2022-12-11T16:32:55.427Z,29.17
2022-12-11T16:35:22.705Z,29.90
2022-12-11T16:37:54.117Z,24.23
2022-12-11T16:40:21.678Z,29.30
2022-12-11T16:42:51.446Z,26.03
2022-12-11T16:45:24.870Z,25.77
2022-12-11T16:47:52.302Z,21.87
2022-12-11T16:50:23.287Z,26.20
2022-12-11T16:52:49.597Z,27.47
2022-12-11T16:55:20.291Z,27.17
2022-12-11T16:57:46.547Z,27.13
2022-12-11T17:00:13.413Z,29.83
2022-12-11T17:02:39.866Z,27.33
2022-12-11T17:05:06.801Z,25.97
2022-12-11T17:07:34.110Z,24.03
2022-12-11T17:10:02.270Z,26.57
2022-12-11T17:12:29.598Z,31.73
2022-12-11T17:14:56.401Z,30.07
2022-12-11T17:17:22.912Z,32.53
2022-12-11T17:19:49.153Z,30.43
2022-12-11T17:22:15.496Z,37.83
2022-12-11T17:24:42.025Z,29.77
2022-12-11T17:27:08.264Z,33.60
2022-12-11T17:29:34.543Z,28.60
2022-12-11T17:32:02.517Z,26.93
2022-12-11T17:34:34.615Z,29.60
2022-12-11T17:37:04.718Z,27.83
2022-12-11T17:39:32.638Z,32.53
2022-12-11T17:41:58.973Z,29.43
2022-12-11T17:44:25.819Z,25.80
2022-12-11T17:46:52.598Z,18.17
2022-12-11T17:49:19.138Z,21.47
2022-12-11T17:51:45.732Z,24.90
2022-12-11T17:54:12.139Z,22.73
2022-12-11T17:56:38.470Z,26.10
2022-12-11T17:59:05.074Z,22.23
2022-12-11T18:01:34.952Z,24.33
2022-12-11T18:04:04.046Z,20.80
2022-12-11T18:06:31.174Z,23.07
2022-12-11T18:08:57.873Z,19.47
2022-12-11T18:11:24.698Z,21.70
2022-12-11T18:13:52.644Z,17.33
2022-12-11T18:16:29.578Z,21.67
2022-12-11T18:18:56.268Z,21.73
2022-12-11T18:21:27.325Z,23.47
2022-12-11T18:23:54.240Z,19.23
2022-12-11T18:26:21.502Z,21.80
2022-12-11T18:28:50.139Z,21.07
2022-12-11T18:31:18.288Z,24.93
2022-12-11T18:33:46.010Z,23.00
2022-12-11T18:36:15.673Z,21.33
2022-12-11T18:38:43.846Z,23.43
2022-12-11T18:41:12.574Z,24.60
2022-12-11T18:43:41.149Z,22.33
2022-12-11T18:46:14.762Z,25.07
2022-12-11T18:48:45.274Z,23.43
2022-12-11T18:51:16.683Z,23.17
2022-12-11T18:53:45.043Z,19.47
2022-12-11T18:56:15.780Z,28.07
2022-12-11T18:58:43.107Z,22.70
2022-12-11T19:01:23.674Z,24.53
2022-12-11T19:03:55.370Z,23.90
2022-12-11T19:06:29.395Z,23.10
2022-12-11T19:08:57.450Z,25.87
2022-12-11T19:11:30.068Z,29.80
2022-12-11T19:13:56.970Z,21.67
2022-12-11T19:16:39.805Z,26.23
2022-12-11T19:19:15.748Z,27.87
2022-12-11T19:21:42.599Z,22.13
2022-12-11T19:24:16.365Z,24.80
2022-12-11T19:26:43.191Z,25.07
2022-12-11T19:29:20.675Z,24.70
2022-12-11T19:31:47.659Z,29.23
2022-12-11T19:34:17.598Z,24.47
2022-12-11T19:36:44.449Z,30.53
2022-12-11T19:39:13.216Z,25.00
2022-12-11T19:41:40.705Z,27.23
2022-12-11T19:44:07.625Z,22.57
2022-12-11T19:46:34.469Z,27.43
2022-12-11T19:49:01.340Z,20.80
2022-12-11T19:51:45.981Z,28.03
2022-12-11T19:54:15.660Z,24.33
2022-12-11T19:56:43.363Z,25.43
2022-12-11T19:59:17.538Z,24.90
2022-12-11T20:01:47.188Z,23.87
2022-12-11T20:04:16.108Z,26.77
2022-12-11T20:06:45.347Z,23.90
2022-12-11T20:09:13.394Z,19.97
2022-12-11T20:11:43.555Z,22.50
2022-12-11T20:14:24.337Z,22.30
2022-12-11T20:19:39.831Z,24.93
2022-12-11T20:22:06.263Z,25.00
2022-12-11T20:24:32.803Z,22.40
2022-12-11T20:26:59.442Z,21.90
2022-12-11T20:29:25.902Z,22.67
2022-12-11T20:31:52.250Z,25.77
2022-12-11T20:34:19.495Z,19.97
2022-12-11T20:36:47.871Z,19.70
2022-12-11T20:39:14.962Z,23.20
2022-12-11T20:41:41.364Z,19.03
2022-12-11T20:44:07.628Z,20.83
2022-12-11T20:46:34.128Z,30.37
2022-12-11T20:49:00.410Z,23.13
2022-12-11T20:51:27.300Z,19.63
2022-12-11T20:53:58.067Z,22.70
2022-12-11T20:56:29.037Z,20.47
2022-12-11T20:58:57.379Z,21.77
2022-12-11T21:01:27.417Z,21.90
2022-12-11T21:03:53.908Z,20.80
2022-12-11T21:06:30.376Z,27.30
2022-12-11T21:09:06.813Z,23.20
2022-12-11T21:11:33.696Z,24.57
2022-12-11T21:14:00.035Z,23.77
2022-12-11T21:16:26.651Z,24.67
2022-12-11T21:18:55.052Z,30.17
2022-12-11T21:21:21.378Z,34.40
2022-12-11T21:23:47.604Z,26.03
2022-12-11T21:26:14.652Z,36.30
2022-12-11T21:28:41.738Z,33.80
2022-12-11T21:31:13.686Z,35.30
2022-12-11T21:33:40.119Z,26.53
2022-12-11T21:36:10.207Z,25.70
2022-12-11T21:38:37.511Z,24.70
2022-12-11T21:41:16.367Z,25.20
2022-12-11T21:44:14.693Z,18.30
2022-12-11T21:46:32.357Z,21.80
2022-12-11T21:48:59.418Z,24.00
2022-12-11T21:51:37.120Z,23.80
2022-12-11T21:54:09.857Z,21.67
2022-12-11T21:56:36.817Z,22.37
2022-12-11T21:59:03.854Z,19.10
2022-12-11T22:01:36.501Z,22.20
2022-12-11T22:04:04.365Z,21.10
2022-12-11T22:06:31.141Z,22.03
2022-12-11T22:08:57.430Z,21.37
2022-12-11T22:11:31.712Z,22.03
2022-12-11T22:13:58.202Z,19.27
2022-12-11T22:16:24.799Z,18.50
2022-12-11T22:18:52.135Z,17.57
2022-12-11T22:21:19.422Z,18.33
2022-12-11T22:23:46.259Z,21.33
2022-12-11T22:26:20.563Z,24.53
2022-12-11T22:28:47.904Z,22.23
2022-12-11T22:31:19.714Z,19.27
2022-12-11T22:33:49.242Z,23.80
2022-12-11T22:36:17.925Z,22.27
2022-12-11T22:38:44.500Z,24.77
2022-12-11T22:41:22.503Z,24.10
2022-12-11T22:43:49.431Z,24.37
2022-12-11T22:46:18.255Z,22.50
2022-12-11T22:48:44.710Z,22.00
2022-12-11T22:51:11.880Z,21.53
2022-12-11T22:53:38.094Z,20.90
2022-12-11T22:56:06.915Z,19.97
2022-12-11T22:58:34.562Z,20.50
2022-12-11T23:01:02.518Z,20.67
2022-12-11T23:03:28.920Z,21.80
2022-12-11T23:05:55.364Z,16.63
2022-12-11T23:08:21.773Z,21.17
2022-12-11T23:10:48.297Z,22.07
2022-12-11T23:13:14.630Z,22.03
2022-12-11T23:15:40.909Z,21.30
2022-12-11T23:18:07.253Z,19.67
2022-12-11T23:20:33.610Z,20.97
2022-12-11T23:22:59.883Z,21.33
2022-12-11T23:25:27.222Z,22.13
2022-12-11T23:27:53.807Z,21.80
2022-12-11T23:30:20.162Z,19.00
2022-12-11T23:32:46.649Z,19.27
2022-12-11T23:35:13.065Z,19.93
2022-12-11T23:37:39.833Z,19.33
2022-12-11T23:40:07.990Z,18.43
2022-12-11T23:42:34.606Z,22.07
2022-12-11T23:45:00.901Z,20.93
2022-12-11T23:47:27.343Z,19.50
2022-12-11T23:49:53.512Z,19.83
2022-12-11T23:52:21.842Z,18.53
2022-12-11T23:54:50.668Z,22.20
2022-12-11T23:57:17.182Z,16.13
2022-12-11T23:59:43.447Z,21.67
